createdAt,value
2017-05-25T00:02:16.520Z,1021.257
2017-05-25T00:05:10.720Z,1021.189
2017-05-25T00:08:04.981Z,1021.183
2017-05-25T00:10:59.204Z,1021.177
2017-05-25T00:13:53.387Z,1021.185
2017-05-25T00:16:47.460Z,1021.182
2017-05-25T00:19:41.647Z,1021.145
2017-05-25T00:22:35.735Z,1021.136
2017-05-25T00:25:29.909Z,1021.152
2017-05-25T00:28:23.998Z,1021.168
2017-05-25T00:31:18.150Z,1021.120
2017-05-25T00:34:12.270Z,1021.161
2017-05-25T00:37:06.457Z,1021.179
2017-05-25T00:40:00.600Z,1021.197
2017-05-25T00:42:54.695Z,1021.210
2017-05-25T00:45:49.028Z,1021.208
2017-05-25T00:48:43.206Z,1021.189
2017-05-25T00:54:31.544Z,1021.274
2017-05-25T00:57:25.718Z,1021.277
2017-05-25T01:00:19.849Z,1021.267
2017-05-25T01:03:13.951Z,1021.243
2017-05-25T01:06:08.181Z,1021.215
2017-05-25T01:09:02.174Z,1021.231
2017-05-25T01:11:56.240Z,1021.185
2017-05-25T01:14:50.456Z,1021.173
2017-05-25T01:17:44.582Z,1021.211
2017-05-25T01:20:38.705Z,1021.265
2017-05-25T01:23:32.871Z,1021.247
2017-05-25T01:26:26.814Z,1021.227
2017-05-25T01:29:20.974Z,1021.223
2017-05-25T01:32:15.040Z,1021.211
2017-05-25T01:35:09.092Z,1021.199
2017-05-25T01:40:57.407Z,1021.157
2017-05-25T01:43:51.651Z,1021.145
2017-05-25T01:46:45.760Z,1021.163
2017-05-25T01:49:39.807Z,1021.232
2017-05-25T01:52:34.008Z,1021.218
2017-05-25T01:55:27.977Z,1021.217
2017-05-25T01:58:22.190Z,1021.223
2017-05-25T02:01:16.256Z,1021.202
2017-05-25T02:04:10.223Z,1021.223
2017-05-25T02:09:58.296Z,1021.251
2017-05-25T02:12:52.327Z,1021.271
2017-05-25T02:18:40.495Z,1021.249
2017-05-25T02:21:34.657Z,1021.242
2017-05-25T02:24:28.738Z,1021.226
2017-05-25T02:27:22.684Z,1021.226
2017-05-25T02:33:10.836Z,1021.166
2017-05-25T02:36:04.772Z,1021.148
2017-05-25T02:38:58.906Z,1021.141
2017-05-25T02:44:46.954Z,1021.140
2017-05-25T02:47:40.845Z,1021.137
2017-05-25T02:50:34.884Z,1021.171
2017-05-25T02:53:28.830Z,1021.156
2017-05-25T02:56:22.916Z,1021.084
2017-05-25T02:59:16.929Z,1021.072
2017-05-25T03:02:10.872Z,1021.114
2017-05-25T03:05:04.729Z,1021.138
2017-05-25T03:10:52.495Z,1021.142
2017-05-25T03:13:46.284Z,1021.174
2017-05-25T03:20:26.070Z,1021.226
2017-05-25T03:23:08.570Z,1021.203
2017-05-25T03:26:01.780Z,1021.198
2017-05-25T03:28:55.467Z,1021.188
2017-05-25T03:31:49.209Z,1021.208
2017-05-25T03:34:42.912Z,1021.239
2017-05-25T03:37:37.200Z,1021.291
2017-05-25T03:47:56.278Z,1021.313
2017-05-25T03:50:38.667Z,1021.285
2017-05-25T03:53:32.008Z,1021.272
2017-05-25T03:56:25.723Z,1021.264
2017-05-25T04:02:13.396Z,1021.219
2017-05-25T04:13:57.584Z,1021.244
2017-05-25T04:16:39.971Z,1021.218
2017-05-25T04:19:33.053Z,1021.240
2017-05-25T04:22:26.726Z,1021.297
2017-05-25T04:25:20.488Z,1021.350
2017-05-25T04:28:14.242Z,1021.357
2017-05-25T04:39:13.915Z,1021.507
2017-05-25T04:41:56.122Z,1021.535
2017-05-25T04:44:49.175Z,1021.485
2017-05-25T04:47:42.880Z,1021.421
2017-05-25T04:50:36.679Z,1021.382
2017-05-25T05:01:13.994Z,1021.360
2017-05-25T05:03:56.368Z,1021.407
2017-05-25T05:09:43.176Z,1021.348
2017-05-25T05:19:01.618Z,1021.439
2017-05-25T05:24:49.574Z,1021.483
2017-05-25T05:27:43.774Z,1021.486
2017-05-25T05:30:38.094Z,1021.505
2017-05-25T05:33:32.280Z,1021.528
2017-05-25T05:36:26.435Z,1021.576
2017-05-25T05:39:20.659Z,1021.577
2017-05-25T05:42:14.907Z,1021.576
2017-05-25T05:48:03.427Z,1021.609
2017-05-25T05:56:46.109Z,1021.577
2017-05-25T05:59:40.447Z,1021.626
2017-05-25T06:02:34.719Z,1021.642
2017-05-25T06:05:28.923Z,1021.604
2017-05-25T06:11:17.576Z,1021.639
2017-05-25T06:14:11.927Z,1021.659
2017-05-25T06:17:06.320Z,1021.661
2017-05-25T06:20:00.680Z,1021.694
2017-05-25T06:22:55.074Z,1021.731
2017-05-25T06:28:43.643Z,1021.698
2017-05-25T06:31:37.955Z,1021.643
2017-05-25T06:34:32.296Z,1021.580
2017-05-25T06:37:26.626Z,1021.622
2017-05-25T06:40:20.965Z,1021.592
2017-05-25T06:43:15.463Z,1021.583
2017-05-25T06:46:09.865Z,1021.564
2017-05-25T06:49:04.314Z,1021.578
2017-05-25T06:51:58.606Z,1021.610
2017-05-25T06:57:47.426Z,1021.647
2017-05-25T07:00:41.739Z,1021.550
2017-05-25T07:03:35.931Z,1021.549
2017-05-25T07:06:30.208Z,1021.565
2017-05-25T07:09:24.511Z,1021.517
2017-05-25T07:12:18.830Z,1021.501
2017-05-25T07:15:13.314Z,1021.554
2017-05-25T07:18:07.726Z,1021.594
2017-05-25T07:21:02.109Z,1021.529
2017-05-25T07:23:56.538Z,1021.356
2017-05-25T07:26:51.170Z,1021.437
2017-05-25T07:29:45.688Z,1021.455
2017-05-25T07:32:40.213Z,1021.424
2017-05-25T07:35:34.799Z,1021.521
2017-05-25T07:38:29.350Z,1021.531
2017-05-25T07:41:23.964Z,1021.562
2017-05-25T07:44:18.597Z,1021.634
2017-05-25T07:47:13.116Z,1021.648
2017-05-25T07:50:07.751Z,1021.716
2017-05-25T07:55:57.010Z,1021.661
2017-05-25T07:58:51.665Z,1021.638
2017-05-25T08:01:46.419Z,1021.565
2017-05-25T08:04:41.093Z,1021.509
2017-05-25T08:07:35.785Z,1021.551
2017-05-25T08:10:30.501Z,1021.615
2017-05-25T08:13:25.083Z,1021.631
2017-05-25T08:16:19.695Z,1021.680
2017-05-25T08:19:14.426Z,1021.742
2017-05-25T08:22:09.038Z,1021.727
2017-05-25T08:25:03.622Z,1021.715
2017-05-25T08:27:58.386Z,1021.755
2017-05-25T08:30:52.933Z,1021.661
2017-05-25T08:33:47.656Z,1021.580
2017-05-25T08:36:42.202Z,1021.630
2017-05-25T08:39:36.779Z,1021.612
2017-05-25T08:42:31.264Z,1021.615
2017-05-25T08:45:25.906Z,1021.582
2017-05-25T08:48:20.634Z,1021.577
2017-05-25T08:51:15.284Z,1021.606
2017-05-25T08:54:10.022Z,1021.657
2017-05-25T08:57:04.558Z,1021.664
2017-05-25T08:59:59.126Z,1021.655
2017-05-25T09:02:53.707Z,1021.582
2017-05-25T09:05:48.335Z,1021.599
2017-05-25T09:08:42.950Z,1021.638
2017-05-25T09:11:37.585Z,1021.618
2017-05-25T09:14:32.250Z,1021.667
2017-05-25T09:17:26.852Z,1021.622
2017-05-25T09:20:21.526Z,1021.773
2017-05-25T09:23:16.183Z,1021.795
2017-05-25T09:26:10.821Z,1021.741
2017-05-25T09:29:05.385Z,1021.785
2017-05-25T09:31:59.910Z,1021.741
2017-05-25T09:34:54.522Z,1021.734
2017-05-25T09:37:49.142Z,1021.764
2017-05-25T09:40:43.809Z,1021.757
2017-05-25T09:43:38.550Z,1021.662
2017-05-25T09:46:33.353Z,1021.805
2017-05-25T09:49:27.943Z,1021.843
2017-05-25T09:52:22.515Z,1021.797
2017-05-25T09:55:17.101Z,1021.838
2017-05-25T09:58:11.740Z,1021.857
2017-05-25T10:01:06.218Z,1021.930
2017-05-25T10:04:00.726Z,1021.864
2017-05-25T10:06:55.438Z,1021.797
2017-05-25T10:12:44.905Z,1021.787
2017-05-25T10:15:39.637Z,1021.679
2017-05-25T10:18:34.381Z,1021.692
2017-05-25T10:21:29.196Z,1021.779
2017-05-25T10:24:23.910Z,1021.681
2017-05-25T10:27:18.638Z,1021.668
2017-05-25T10:30:13.222Z,1021.747
2017-05-25T10:33:08.016Z,1021.694
2017-05-25T10:36:02.699Z,1021.747
2017-05-25T10:38:57.516Z,1021.774
2017-05-25T10:41:52.122Z,1021.826
2017-05-25T10:47:41.276Z,1021.905
2017-05-25T10:50:36.031Z,1021.995
2017-05-25T10:53:30.691Z,1021.985
2017-05-25T10:56:25.423Z,1021.948
2017-05-25T10:59:19.889Z,1021.933
2017-05-25T11:02:14.532Z,1021.825
2017-05-25T11:05:09.174Z,1021.829
2017-05-25T11:08:03.847Z,1021.782
2017-05-25T11:10:58.443Z,1021.840
2017-05-25T11:13:53.072Z,1021.988
2017-05-25T11:16:47.583Z,1022.021
2017-05-25T11:19:42.089Z,1021.999
2017-05-25T11:22:36.644Z,1021.984
2017-05-25T11:25:31.224Z,1022.003
2017-05-25T11:28:25.878Z,1022.032
2017-05-25T11:34:15.018Z,1022.057
2017-05-25T11:40:04.134Z,1021.982
2017-05-25T11:42:58.751Z,1021.987
2017-05-25T11:45:53.156Z,1022.073
2017-05-25T11:48:47.882Z,1022.091
2017-05-25T11:51:42.499Z,1022.087
2017-05-25T11:54:37.162Z,1022.082
2017-05-25T11:57:31.577Z,1022.129
2017-05-25T12:00:26.171Z,1022.026
2017-05-25T12:06:15.563Z,1022.044
2017-05-25T12:09:10.021Z,1022.052
2017-05-25T12:12:04.602Z,1022.106
2017-05-25T12:14:59.223Z,1022.064
2017-05-25T12:17:53.772Z,1022.047
2017-05-25T12:20:48.271Z,1022.040
2017-05-25T12:23:42.921Z,1021.992
2017-05-25T12:26:37.522Z,1022.005
2017-05-25T12:29:32.098Z,1021.978
2017-05-25T12:32:26.634Z,1021.953
2017-05-25T12:35:21.279Z,1021.929
2017-05-25T12:38:15.927Z,1021.945
2017-05-25T12:41:10.394Z,1022.000
2017-05-25T12:44:04.945Z,1021.940
2017-05-25T12:46:59.536Z,1021.910
2017-05-25T12:49:54.130Z,1021.859
2017-05-25T12:55:43.270Z,1021.895
2017-05-25T12:58:37.725Z,1021.872
2017-05-25T13:01:32.311Z,1021.872
2017-05-25T13:04:26.830Z,1021.883
2017-05-25T13:07:21.449Z,1021.871
2017-05-25T13:10:15.992Z,1021.875
2017-05-25T13:13:10.587Z,1021.900
2017-05-25T13:16:05.132Z,1021.857
2017-05-25T13:18:59.692Z,1021.835
2017-05-25T13:24:48.791Z,1021.828
2017-05-25T13:27:43.349Z,1021.856
2017-05-25T13:30:37.883Z,1021.866
2017-05-25T13:33:32.390Z,1021.803
2017-05-25T13:36:26.965Z,1021.797
2017-05-25T13:39:21.428Z,1021.743
2017-05-25T13:42:15.976Z,1021.716
2017-05-25T13:45:10.523Z,1021.693
2017-05-25T13:48:05.131Z,1021.656
2017-05-25T13:50:59.792Z,1021.568
2017-05-25T13:53:54.237Z,1021.513
2017-05-25T13:56:48.881Z,1021.395
2017-05-25T13:59:43.631Z,1021.383
2017-05-25T14:02:38.146Z,1021.387
2017-05-25T14:05:32.818Z,1021.280
2017-05-25T14:08:27.377Z,1021.249
2017-05-25T14:11:21.916Z,1021.186
2017-05-25T14:14:16.562Z,1021.166
2017-05-25T14:17:11.289Z,1021.169
2017-05-25T14:20:05.775Z,1021.246
2017-05-25T14:23:00.407Z,1021.276
2017-05-25T14:25:55.053Z,1021.260
2017-05-25T14:31:44.272Z,1021.262
2017-05-25T14:34:38.859Z,1021.186
2017-05-25T14:37:33.483Z,1021.182
2017-05-25T14:43:22.766Z,1021.189
2017-05-25T14:46:17.350Z,1021.191
2017-05-25T14:49:11.981Z,1021.169
2017-05-25T14:55:01.193Z,1021.148
2017-05-25T14:57:55.901Z,1021.142
2017-05-25T15:00:50.598Z,1021.185
2017-05-25T15:03:45.131Z,1021.164
2017-05-25T15:06:39.697Z,1021.175
2017-05-25T15:09:34.312Z,1021.154
2017-05-25T15:12:28.899Z,1021.118
2017-05-25T15:15:23.476Z,1021.084
2017-05-25T15:18:18.096Z,1021.097
2017-05-25T15:21:12.698Z,1021.035
2017-05-25T15:24:07.397Z,1020.968
2017-05-25T15:27:02.011Z,1021.007
2017-05-25T15:35:45.821Z,1020.863
2017-05-25T15:38:40.454Z,1020.863
2017-05-25T15:41:35.033Z,1020.796
2017-05-25T15:44:29.506Z,1020.784
2017-05-25T15:50:19.165Z,1020.774
2017-05-25T15:53:13.691Z,1020.725
2017-05-25T15:56:08.466Z,1020.711
2017-05-25T15:59:03.115Z,1020.668
2017-05-25T16:01:57.638Z,1020.652
2017-05-25T16:04:52.164Z,1020.593
2017-05-25T16:07:46.644Z,1020.610
2017-05-25T16:13:35.982Z,1020.564
2017-05-25T16:16:30.415Z,1020.532
2017-05-25T16:19:24.935Z,1020.488
2017-05-25T16:22:19.457Z,1020.466
2017-05-25T16:25:13.926Z,1020.460
2017-05-25T16:28:08.509Z,1020.458
2017-05-25T16:31:03.083Z,1020.409
2017-05-25T16:33:57.706Z,1020.368
2017-05-25T16:36:52.203Z,1020.390
2017-05-25T16:39:46.743Z,1020.375
2017-05-25T16:42:41.371Z,1020.392
2017-05-25T16:45:35.931Z,1020.362
2017-05-25T16:48:30.450Z,1020.349
2017-05-25T16:51:24.964Z,1020.345
2017-05-25T16:54:19.785Z,1020.275
2017-05-25T16:57:14.490Z,1020.267
2017-05-25T17:00:09.123Z,1020.255
2017-05-25T17:03:03.665Z,1020.226
2017-05-25T17:05:58.295Z,1020.277
2017-05-25T17:08:52.875Z,1020.275
2017-05-25T17:11:47.316Z,1020.241
2017-05-25T17:14:41.935Z,1020.247
2017-05-25T17:20:31.100Z,1020.220
2017-05-25T17:23:25.639Z,1020.206
2017-05-25T17:26:20.162Z,1020.166
2017-05-25T17:29:14.657Z,1020.185
2017-05-25T17:32:09.302Z,1020.213
2017-05-25T17:35:03.831Z,1020.160
2017-05-25T17:40:52.894Z,1020.111
2017-05-25T17:43:47.504Z,1020.073
2017-05-25T17:46:42.115Z,1020.085
2017-05-25T17:49:36.656Z,1020.115
2017-05-25T17:52:31.184Z,1020.127
2017-05-25T17:55:25.630Z,1020.115
2017-05-25T17:58:20.067Z,1020.143
2017-05-25T18:01:14.717Z,1020.168
2017-05-25T18:04:09.150Z,1020.182
2017-05-25T18:07:04.017Z,1020.164
2017-05-25T18:09:58.565Z,1020.192
2017-05-25T18:15:47.465Z,1020.089
2017-05-25T18:18:42.000Z,1020.078
2017-05-25T18:21:36.549Z,1020.027
2017-05-25T18:24:31.094Z,1020.082
2017-05-25T18:27:25.587Z,1020.110
2017-05-25T18:30:20.114Z,1020.095
2017-05-25T18:33:14.468Z,1020.139
2017-05-25T18:36:08.884Z,1020.128
2017-05-25T18:39:03.333Z,1020.090
2017-05-25T18:41:57.786Z,1020.084
2017-05-25T18:44:52.182Z,1020.123
2017-05-25T18:50:41.238Z,1020.155
2017-05-25T18:53:36.081Z,1020.172
2017-05-25T18:56:30.509Z,1020.235
2017-05-25T18:59:24.976Z,1020.256
2017-05-25T19:02:19.314Z,1020.281
2017-05-25T19:05:13.782Z,1020.373
2017-05-25T19:08:08.189Z,1020.354
2017-05-25T19:11:02.660Z,1020.357
2017-05-25T19:13:57.140Z,1020.412
2017-05-25T19:19:45.989Z,1020.392
2017-05-25T19:25:34.734Z,1020.470
2017-05-25T19:28:29.269Z,1020.548
2017-05-25T19:31:23.633Z,1020.612
2017-05-25T19:34:18.031Z,1020.739
2017-05-25T19:37:12.357Z,1020.735
2017-05-25T19:40:06.681Z,1020.763
2017-05-25T19:45:55.348Z,1020.820
2017-05-25T19:48:49.770Z,1020.859
2017-05-25T19:51:44.134Z,1020.863
2017-05-25T19:54:38.389Z,1020.834
